sensor_id;sensor_type;location;lat;lon;timestamp;P1;durP1;ratioP1;P2;durP2;ratioP2
61391;SDS011;47261;52.892;5.738;2023-09-12T00:02:05;59.57;;;30.03;;
61391;SDS011;47261;52.892;5.738;2023-09-12T00:04:30;55.22;;;28.35;;
61391;SDS011;47261;52.892;5.738;2023-09-12T00:06:56;54.00;;;29.17;;
61391;SDS011;47261;52.892;5.738;2023-09-12T00:09:22;54.75;;;29.10;;
61391;SDS011;47261;52.892;5.738;2023-09-12T00:11:48;56.57;;;29.83;;
61391;SDS011;47261;52.892;5.738;2023-09-12T00:14:16;60.80;;;30.73;;
61391;SDS011;47261;52.892;5.738;2023-09-12T00:16:43;56.28;;;28.70;;
61391;SDS011;47261;52.892;5.738;2023-09-12T00:19:08;60.00;;;26.23;;
61391;SDS011;47261;52.892;5.738;2023-09-12T00:21:34;46.57;;;25.27;;
61391;SDS011;47261;52.892;5.738;2023-09-12T00:24:00;48.20;;;27.53;;
61391;SDS011;47261;52.892;5.738;2023-09-12T00:26:26;61.00;;;29.03;;
61391;SDS011;47261;52.892;5.738;2023-09-12T00:28:51;49.97;;;26.92;;
61391;SDS011;47261;52.892;5.738;2023-09-12T00:31:17;53.67;;;24.63;;
61391;SDS011;47261;52.892;5.738;2023-09-12T00:33:43;189.93;;;18.03;;
61391;SDS011;47261;52.892;5.738;2023-09-12T00:36:08;81.07;;;17.27;;
61391;SDS011;47261;52.892;5.738;2023-09-12T00:38:34;41.25;;;23.45;;
61391;SDS011;47261;52.892;5.738;2023-09-12T00:40:59;61.43;;;27.63;;
61391;SDS011;47261;52.892;5.738;2023-09-12T00:43:25;60.87;;;29.30;;
61391;SDS011;47261;52.892;5.738;2023-09-12T00:45:50;67.67;;;29.37;;
61391;SDS011;47261;52.892;5.738;2023-09-12T00:48:16;64.53;;;29.73;;
61391;SDS011;47261;52.892;5.738;2023-09-12T00:50:44;64.65;;;29.27;;
61391;SDS011;47261;52.892;5.738;2023-09-12T00:53:11;64.15;;;29.90;;
61391;SDS011;47261;52.892;5.738;2023-09-12T00:55:39;63.70;;;29.75;;
61391;SDS011;47261;52.892;5.738;2023-09-12T00:58:09;63.15;;;30.48;;
61391;SDS011;47261;52.892;5.738;2023-09-12T01:00:35;68.90;;;31.40;;
61391;SDS011;47261;52.892;5.738;2023-09-12T01:03:00;64.55;;;28.42;;
61391;SDS011;47261;52.892;5.738;2023-09-12T01:05:27;64.27;;;28.53;;
61391;SDS011;47261;52.892;5.738;2023-09-12T01:07:53;63.47;;;29.02;;
61391;SDS011;47261;52.892;5.738;2023-09-12T01:10:19;73.72;;;30.85;;
61391;SDS011;47261;52.892;5.738;2023-09-12T01:12:45;69.00;;;31.53;;
61391;SDS011;47261;52.892;5.738;2023-09-12T01:15:11;67.97;;;30.80;;
61391;SDS011;47261;52.892;5.738;2023-09-12T01:17:42;82.18;;;31.45;;
61391;SDS011;47261;52.892;5.738;2023-09-12T01:20:10;85.82;;;31.92;;
61391;SDS011;47261;52.892;5.738;2023-09-12T01:28:07;79.28;;;31.08;;
61391;SDS011;47261;52.892;5.738;2023-09-12T01:30:35;78.03;;;31.40;;
61391;SDS011;47261;52.892;5.738;2023-09-12T01:33:02;92.60;;;32.15;;
61391;SDS011;47261;52.892;5.738;2023-09-12T01:35:28;94.53;;;32.27;;
61391;SDS011;47261;52.892;5.738;2023-09-12T01:37:54;82.38;;;33.28;;
61391;SDS011;47261;52.892;5.738;2023-09-12T01:40:24;79.80;;;33.37;;
61391;SDS011;47261;52.892;5.738;2023-09-12T01:43:03;90.65;;;33.80;;
61391;SDS011;47261;52.892;5.738;2023-09-12T01:45:31;95.75;;;34.63;;
61391;SDS011;47261;52.892;5.738;2023-09-12T01:47:58;89.05;;;33.95;;
61391;SDS011;47261;52.892;5.738;2023-09-12T01:50:25;95.55;;;35.65;;
61391;SDS011;47261;52.892;5.738;2023-09-12T01:52:53;89.00;;;33.87;;
61391;SDS011;47261;52.892;5.738;2023-09-12T01:55:19;97.30;;;34.65;;
61391;SDS011;47261;52.892;5.738;2023-09-12T01:57:46;124.95;;;33.78;;
61391;SDS011;47261;52.892;5.738;2023-09-12T02:00:12;92.00;;;32.22;;
61391;SDS011;47261;52.892;5.738;2023-09-12T02:02:38;105.53;;;33.63;;
61391;SDS011;47261;52.892;5.738;2023-09-12T02:07:37;132.05;;;36.83;;
61391;SDS011;47261;52.892;5.738;2023-09-12T02:10:05;127.57;;;37.55;;
61391;SDS011;47261;52.892;5.738;2023-09-12T02:12:31;142.53;;;38.83;;
61391;SDS011;47261;52.892;5.738;2023-09-12T02:14:57;175.82;;;38.15;;
61391;SDS011;47261;52.892;5.738;2023-09-12T02:17:23;188.23;;;39.22;;
61391;SDS011;47261;52.892;5.738;2023-09-12T02:19:48;149.10;;;38.73;;
61391;SDS011;47261;52.892;5.738;2023-09-12T02:22:14;144.00;;;39.13;;
61391;SDS011;47261;52.892;5.738;2023-09-12T02:24:40;489.50;;;41.43;;
61391;SDS011;47261;52.892;5.738;2023-09-12T02:27:06;194.68;;;35.22;;
61391;SDS011;47261;52.892;5.738;2023-09-12T02:29:31;184.37;;;36.97;;
61391;SDS011;47261;52.892;5.738;2023-09-12T02:31:57;192.23;;;39.00;;
61391;SDS011;47261;52.892;5.738;2023-09-12T02:34:23;183.73;;;41.58;;
61391;SDS011;47261;52.892;5.738;2023-09-12T02:36:49;180.33;;;41.13;;
61391;SDS011;47261;52.892;5.738;2023-09-12T02:39:15;196.10;;;37.65;;
61391;SDS011;47261;52.892;5.738;2023-09-12T02:41:41;374.87;;;38.03;;
61391;SDS011;47261;52.892;5.738;2023-09-12T02:44:06;273.70;;;31.83;;
61391;SDS011;47261;52.892;5.738;2023-09-12T02:46:32;590.27;;;38.00;;
61391;SDS011;47261;52.892;5.738;2023-09-12T02:48:58;531.42;;;36.15;;
61391;SDS011;47261;52.892;5.738;2023-09-12T02:51:27;477.47;;;32.27;;
61391;SDS011;47261;52.892;5.738;2023-09-12T02:53:53;274.50;;;31.02;;
61391;SDS011;47261;52.892;5.738;2023-09-12T02:56:19;325.90;;;33.90;;
61391;SDS011;47261;52.892;5.738;2023-09-12T02:58:48;432.20;;;37.37;;
61391;SDS011;47261;52.892;5.738;2023-09-12T03:01:17;311.73;;;37.63;;
61391;SDS011;47261;52.892;5.738;2023-09-12T03:03:50;162.77;;;34.90;;
61391;SDS011;47261;52.892;5.738;2023-09-12T03:06:16;548.40;;;35.92;;
61391;SDS011;47261;52.892;5.738;2023-09-12T03:08:43;502.45;;;32.47;;
61391;SDS011;47261;52.892;5.738;2023-09-12T03:11:10;707.13;;;45.07;;
61391;SDS011;47261;52.892;5.738;2023-09-12T03:13:39;660.38;;;43.92;;
61391;SDS011;47261;52.892;5.738;2023-09-12T03:16:12;636.78;;;43.80;;
61391;SDS011;47261;52.892;5.738;2023-09-12T03:18:39;658.35;;;45.67;;
61391;SDS011;47261;52.892;5.738;2023-09-12T03:21:05;603.95;;;42.30;;
61391;SDS011;47261;52.892;5.738;2023-09-12T03:23:32;579.53;;;44.23;;
61391;SDS011;47261;52.892;5.738;2023-09-12T03:26:04;657.67;;;48.47;;
61391;SDS011;47261;52.892;5.738;2023-09-12T03:28:30;844.60;;;58.22;;
61391;SDS011;47261;52.892;5.738;2023-09-12T03:31:07;670.03;;;49.00;;
61391;SDS011;47261;52.892;5.738;2023-09-12T03:33:33;711.13;;;48.28;;
61391;SDS011;47261;52.892;5.738;2023-09-12T03:35:59;579.67;;;40.37;;
61391;SDS011;47261;52.892;5.738;2023-09-12T03:38:25;449.98;;;35.17;;
61391;SDS011;47261;52.892;5.738;2023-09-12T03:40:51;650.73;;;45.77;;
61391;SDS011;47261;52.892;5.738;2023-09-12T03:43:16;579.75;;;42.63;;
61391;SDS011;47261;52.892;5.738;2023-09-12T03:45:42;529.67;;;39.37;;
61391;SDS011;47261;52.892;5.738;2023-09-12T03:48:07;495.87;;;38.63;;
61391;SDS011;47261;52.892;5.738;2023-09-12T03:50:33;492.08;;;37.80;;
61391;SDS011;47261;52.892;5.738;2023-09-12T03:52:59;508.63;;;36.67;;
61391;SDS011;47261;52.892;5.738;2023-09-12T03:55:24;545.75;;;37.33;;
61391;SDS011;47261;52.892;5.738;2023-09-12T03:57:50;629.43;;;44.50;;
61391;SDS011;47261;52.892;5.738;2023-09-12T04:00:16;612.17;;;42.37;;
61391;SDS011;47261;52.892;5.738;2023-09-12T04:02:41;649.55;;;43.58;;
61391;SDS011;47261;52.892;5.738;2023-09-12T04:05:07;696.33;;;48.90;;
61391;SDS011;47261;52.892;5.738;2023-09-12T04:07:34;594.70;;;41.85;;
61391;SDS011;47261;52.892;5.738;2023-09-12T04:09:59;733.23;;;50.53;;
61391;SDS011;47261;52.892;5.738;2023-09-12T04:12:25;688.85;;;48.10;;
61391;SDS011;47261;52.892;5.738;2023-09-12T04:14:52;729.10;;;53.60;;
61391;SDS011;47261;52.892;5.738;2023-09-12T04:17:17;788.38;;;55.13;;
61391;SDS011;47261;52.892;5.738;2023-09-12T04:19:43;861.80;;;59.78;;
61391;SDS011;47261;52.892;5.738;2023-09-12T04:22:09;806.13;;;56.60;;
61391;SDS011;47261;52.892;5.738;2023-09-12T04:24:34;825.63;;;63.70;;
61391;SDS011;47261;52.892;5.738;2023-09-12T04:27:00;815.73;;;60.50;;
61391;SDS011;47261;52.892;5.738;2023-09-12T04:29:26;925.37;;;65.80;;
61391;SDS011;47261;52.892;5.738;2023-09-12T04:31:52;1020.97;;;67.40;;
61391;SDS011;47261;52.892;5.738;2023-09-12T04:34:24;1070.97;;;69.80;;
61391;SDS011;47261;52.892;5.738;2023-09-12T04:36:50;1068.28;;;69.85;;
61391;SDS011;47261;52.892;5.738;2023-09-12T04:39:15;1204.37;;;74.70;;
61391;SDS011;47261;52.892;5.738;2023-09-12T04:41:41;966.33;;;66.03;;
61391;SDS011;47261;52.892;5.738;2023-09-12T04:44:07;839.00;;;61.33;;
61391;SDS011;47261;52.892;5.738;2023-09-12T04:46:33;992.07;;;69.90;;
61391;SDS011;47261;52.892;5.738;2023-09-12T04:48:59;1012.55;;;69.25;;
61391;SDS011;47261;52.892;5.738;2023-09-12T04:51:24;817.08;;;60.58;;
61391;SDS011;47261;52.892;5.738;2023-09-12T04:53:52;1128.17;;;73.80;;
61391;SDS011;47261;52.892;5.738;2023-09-12T04:56:18;934.85;;;64.10;;
61391;SDS011;47261;52.892;5.738;2023-09-12T04:58:43;1079.22;;;73.50;;
61391;SDS011;47261;52.892;5.738;2023-09-12T05:01:09;1098.67;;;73.77;;
61391;SDS011;47261;52.892;5.738;2023-09-12T05:03:35;1049.65;;;69.93;;
61391;SDS011;47261;52.892;5.738;2023-09-12T05:06:01;822.23;;;61.37;;
61391;SDS011;47261;52.892;5.738;2023-09-12T05:08:26;790.25;;;60.97;;
61391;SDS011;47261;52.892;5.738;2023-09-12T05:10:52;871.47;;;62.63;;
61391;SDS011;47261;52.892;5.738;2023-09-12T05:13:18;821.17;;;64.30;;
61391;SDS011;47261;52.892;5.738;2023-09-12T05:15:44;800.30;;;60.77;;
61391;SDS011;47261;52.892;5.738;2023-09-12T05:18:09;709.70;;;56.10;;
61391;SDS011;47261;52.892;5.738;2023-09-12T05:20:35;663.70;;;57.17;;
61391;SDS011;47261;52.892;5.738;2023-09-12T05:23:01;483.53;;;40.43;;
61391;SDS011;47261;52.892;5.738;2023-09-12T05:25:27;712.78;;;60.83;;
61391;SDS011;47261;52.892;5.738;2023-09-12T05:27:54;802.22;;;61.17;;
61391;SDS011;47261;52.892;5.738;2023-09-12T05:30:19;748.70;;;59.00;;
61391;SDS011;47261;52.892;5.738;2023-09-12T05:32:45;797.20;;;62.03;;
61391;SDS011;47261;52.892;5.738;2023-09-12T05:35:11;828.70;;;65.78;;
61391;SDS011;47261;52.892;5.738;2023-09-12T05:37:36;851.00;;;63.73;;
61391;SDS011;47261;52.892;5.738;2023-09-12T05:40:02;962.63;;;72.40;;
61391;SDS011;47261;52.892;5.738;2023-09-12T05:42:28;738.38;;;57.78;;
61391;SDS011;47261;52.892;5.738;2023-09-12T05:44:54;916.10;;;69.45;;
61391;SDS011;47261;52.892;5.738;2023-09-12T05:47:20;866.67;;;69.17;;
61391;SDS011;47261;52.892;5.738;2023-09-12T05:49:46;743.45;;;63.00;;
61391;SDS011;47261;52.892;5.738;2023-09-12T05:52:12;695.05;;;60.72;;
61391;SDS011;47261;52.892;5.738;2023-09-12T05:54:38;708.77;;;65.53;;
61391;SDS011;47261;52.892;5.738;2023-09-12T05:57:05;845.45;;;70.82;;
61391;SDS011;47261;52.892;5.738;2023-09-12T05:59:31;791.85;;;67.38;;
61391;SDS011;47261;52.892;5.738;2023-09-12T06:01:58;839.22;;;69.80;;
61391;SDS011;47261;52.892;5.738;2023-09-12T06:04:23;875.50;;;70.20;;
61391;SDS011;47261;52.892;5.738;2023-09-12T06:06:49;578.72;;;63.38;;
61391;SDS011;47261;52.892;5.738;2023-09-12T06:09:15;704.63;;;67.30;;
61391;SDS011;47261;52.892;5.738;2023-09-12T06:11:40;532.73;;;63.60;;
61391;SDS011;47261;52.892;5.738;2023-09-12T06:14:06;382.30;;;58.40;;
61391;SDS011;47261;52.892;5.738;2023-09-12T06:16:31;582.77;;;65.90;;
61391;SDS011;47261;52.892;5.738;2023-09-12T06:18:57;480.00;;;59.25;;
61391;SDS011;47261;52.892;5.738;2023-09-12T06:21:23;346.87;;;52.10;;
61391;SDS011;47261;52.892;5.738;2023-09-12T06:23:57;301.58;;;53.15;;
61391;SDS011;47261;52.892;5.738;2023-09-12T06:26:37;269.43;;;47.27;;
61391;SDS011;47261;52.892;5.738;2023-09-12T06:29:03;278.95;;;47.08;;
61391;SDS011;47261;52.892;5.738;2023-09-12T06:31:29;250.65;;;46.83;;
61391;SDS011;47261;52.892;5.738;2023-09-12T06:33:55;308.70;;;51.20;;
61391;SDS011;47261;52.892;5.738;2023-09-12T06:36:21;311.30;;;52.37;;
61391;SDS011;47261;52.892;5.738;2023-09-12T06:38:49;332.55;;;53.67;;
61391;SDS011;47261;52.892;5.738;2023-09-12T06:41:14;350.25;;;54.30;;
61391;SDS011;47261;52.892;5.738;2023-09-12T06:43:40;334.67;;;53.83;;
61391;SDS011;47261;52.892;5.738;2023-09-12T06:46:08;270.75;;;51.90;;
61391;SDS011;47261;52.892;5.738;2023-09-12T06:48:33;299.83;;;53.10;;
61391;SDS011;47261;52.892;5.738;2023-09-12T06:50:59;279.38;;;50.28;;
61391;SDS011;47261;52.892;5.738;2023-09-12T06:53:25;255.97;;;50.37;;
61391;SDS011;47261;52.892;5.738;2023-09-12T06:55:58;260.67;;;49.47;;
61391;SDS011;47261;52.892;5.738;2023-09-12T06:58:24;272.37;;;50.70;;
61391;SDS011;47261;52.892;5.738;2023-09-12T07:00:50;281.95;;;51.65;;
61391;SDS011;47261;52.892;5.738;2023-09-12T07:03:16;220.32;;;47.60;;
61391;SDS011;47261;52.892;5.738;2023-09-12T07:05:42;213.13;;;42.97;;
61391;SDS011;47261;52.892;5.738;2023-09-12T07:08:08;178.13;;;40.90;;
61391;SDS011;47261;52.892;5.738;2023-09-12T07:10:34;161.55;;;38.42;;
61391;SDS011;47261;52.892;5.738;2023-09-12T07:13:01;314.50;;;53.67;;
61391;SDS011;47261;52.892;5.738;2023-09-12T07:15:27;329.67;;;54.72;;
61391;SDS011;47261;52.892;5.738;2023-09-12T07:17:53;296.73;;;53.60;;
61391;SDS011;47261;52.892;5.738;2023-09-12T07:20:19;265.08;;;52.58;;
61391;SDS011;47261;52.892;5.738;2023-09-12T07:22:45;263.20;;;52.38;;
61391;SDS011;47261;52.892;5.738;2023-09-12T07:25:13;292.10;;;53.43;;
61391;SDS011;47261;52.892;5.738;2023-09-12T07:27:39;220.05;;;49.97;;
61391;SDS011;47261;52.892;5.738;2023-09-12T07:30:05;254.70;;;52.33;;
61391;SDS011;47261;52.892;5.738;2023-09-12T07:32:32;217.87;;;50.10;;
61391;SDS011;47261;52.892;5.738;2023-09-12T07:34:58;225.15;;;49.70;;
61391;SDS011;47261;52.892;5.738;2023-09-12T07:37:24;205.93;;;48.95;;
61391;SDS011;47261;52.892;5.738;2023-09-12T07:39:50;167.40;;;43.53;;
61391;SDS011;47261;52.892;5.738;2023-09-12T07:42:15;136.70;;;38.70;;
61391;SDS011;47261;52.892;5.738;2023-09-12T07:44:41;88.47;;;32.03;;
61391;SDS011;47261;52.892;5.738;2023-09-12T07:47:07;103.93;;;34.42;;
61391;SDS011;47261;52.892;5.738;2023-09-12T07:49:33;79.60;;;29.63;;
61391;SDS011;47261;52.892;5.738;2023-09-12T07:51:58;76.05;;;29.33;;
61391;SDS011;47261;52.892;5.738;2023-09-12T07:54:24;68.07;;;28.50;;
61391;SDS011;47261;52.892;5.738;2023-09-12T07:56:49;72.38;;;29.80;;
61391;SDS011;47261;52.892;5.738;2023-09-12T07:59:15;63.43;;;30.03;;
61391;SDS011;47261;52.892;5.738;2023-09-12T08:01:41;39.55;;;20.25;;
61391;SDS011;47261;52.892;5.738;2023-09-12T08:04:07;47.50;;;22.43;;
61391;SDS011;47261;52.892;5.738;2023-09-12T08:06:33;41.60;;;22.27;;
61391;SDS011;47261;52.892;5.738;2023-09-12T08:08:59;40.83;;;20.73;;
61391;SDS011;47261;52.892;5.738;2023-09-12T08:11:25;41.22;;;19.50;;
61391;SDS011;47261;52.892;5.738;2023-09-12T08:13:52;45.90;;;23.97;;
61391;SDS011;47261;52.892;5.738;2023-09-12T08:16:17;45.28;;;21.38;;
61391;SDS011;47261;52.892;5.738;2023-09-12T08:18:43;49.17;;;24.27;;
61391;SDS011;47261;52.892;5.738;2023-09-12T08:21:09;49.85;;;24.80;;
61391;SDS011;47261;52.892;5.738;2023-09-12T08:23:35;50.05;;;23.02;;
61391;SDS011;47261;52.892;5.738;2023-09-12T08:26:01;41.23;;;21.13;;
61391;SDS011;47261;52.892;5.738;2023-09-12T08:28:27;47.15;;;24.55;;
61391;SDS011;47261;52.892;5.738;2023-09-12T08:30:52;51.93;;;25.30;;
61391;SDS011;47261;52.892;5.738;2023-09-12T08:33:18;48.92;;;24.10;;
61391;SDS011;47261;52.892;5.738;2023-09-12T08:35:44;50.37;;;24.13;;
61391;SDS011;47261;52.892;5.738;2023-09-12T08:38:09;40.20;;;21.88;;
61391;SDS011;47261;52.892;5.738;2023-09-12T08:40:36;42.40;;;20.63;;
61391;SDS011;47261;52.892;5.738;2023-09-12T08:43:03;41.07;;;21.63;;
61391;SDS011;47261;52.892;5.738;2023-09-12T08:45:29;44.47;;;22.05;;
61391;SDS011;47261;52.892;5.738;2023-09-12T08:47:55;39.28;;;21.70;;
61391;SDS011;47261;52.892;5.738;2023-09-12T08:50:24;39.30;;;20.10;;
61391;SDS011;47261;52.892;5.738;2023-09-12T08:52:50;36.97;;;21.05;;
61391;SDS011;47261;52.892;5.738;2023-09-12T08:55:15;37.57;;;20.70;;
61391;SDS011;47261;52.892;5.738;2023-09-12T08:57:42;38.53;;;21.75;;
61391;SDS011;47261;52.892;5.738;2023-09-12T09:00:09;38.08;;;20.42;;
61391;SDS011;47261;52.892;5.738;2023-09-12T09:02:37;38.33;;;20.20;;
61391;SDS011;47261;52.892;5.738;2023-09-12T09:05:08;40.60;;;22.03;;
61391;SDS011;47261;52.892;5.738;2023-09-12T09:07:38;38.45;;;20.35;;
61391;SDS011;47261;52.892;5.738;2023-09-12T09:10:05;37.72;;;20.25;;
61391;SDS011;47261;52.892;5.738;2023-09-12T09:12:32;36.03;;;20.10;;
61391;SDS011;47261;52.892;5.738;2023-09-12T09:14:58;39.35;;;19.42;;
61391;SDS011;47261;52.892;5.738;2023-09-12T09:17:44;38.17;;;20.37;;
61391;SDS011;47261;52.892;5.738;2023-09-12T09:20:10;36.03;;;19.38;;
61391;SDS011;47261;52.892;5.738;2023-09-12T09:25:35;27.33;;;13.40;;
61391;SDS011;47261;52.892;5.738;2023-09-12T09:28:04;30.58;;;15.68;;
61391;SDS011;47261;52.892;5.738;2023-09-12T09:30:41;28.17;;;14.68;;
61391;SDS011;47261;52.892;5.738;2023-09-12T09:33:09;29.63;;;16.38;;
61391;SDS011;47261;52.892;5.738;2023-09-12T09:35:36;30.13;;;17.25;;
61391;SDS011;47261;52.892;5.738;2023-09-12T09:38:04;30.97;;;17.00;;
61391;SDS011;47261;52.892;5.738;2023-09-12T09:40:34;25.98;;;13.55;;
61391;SDS011;47261;52.892;5.738;2023-09-12T09:43:01;27.98;;;14.82;;
61391;SDS011;47261;52.892;5.738;2023-09-12T09:45:28;24.85;;;12.95;;
61391;SDS011;47261;52.892;5.738;2023-09-12T09:48:04;28.27;;;13.68;;
61391;SDS011;47261;52.892;5.738;2023-09-12T09:50:33;27.23;;;14.07;;
61391;SDS011;47261;52.892;5.738;2023-09-12T09:53:02;34.05;;;16.45;;
61391;SDS011;47261;52.892;5.738;2023-09-12T09:55:29;29.35;;;17.27;;
61391;SDS011;47261;52.892;5.738;2023-09-12T09:57:56;26.63;;;14.73;;
61391;SDS011;47261;52.892;5.738;2023-09-12T10:00:22;24.87;;;13.73;;
61391;SDS011;47261;52.892;5.738;2023-09-12T10:02:49;27.85;;;15.73;;
61391;SDS011;47261;52.892;5.738;2023-09-12T10:05:16;28.67;;;14.30;;
61391;SDS011;47261;52.892;5.738;2023-09-12T10:07:42;26.50;;;14.73;;
61391;SDS011;47261;52.892;5.738;2023-09-12T10:10:12;27.17;;;13.73;;
61391;SDS011;47261;52.892;5.738;2023-09-12T10:12:40;23.95;;;14.18;;
61391;SDS011;47261;52.892;5.738;2023-09-12T10:15:10;27.70;;;15.10;;
61391;SDS011;47261;52.892;5.738;2023-09-12T10:17:37;31.38;;;16.45;;
61391;SDS011;47261;52.892;5.738;2023-09-12T10:20:08;31.83;;;16.50;;
61391;SDS011;47261;52.892;5.738;2023-09-12T10:22:42;29.00;;;16.57;;
61391;SDS011;47261;52.892;5.738;2023-09-12T10:25:15;32.83;;;16.77;;
61391;SDS011;47261;52.892;5.738;2023-09-12T10:27:41;27.60;;;16.42;;
61391;SDS011;47261;52.892;5.738;2023-09-12T10:30:07;33.17;;;17.63;;
61391;SDS011;47261;52.892;5.738;2023-09-12T10:32:34;28.92;;;14.90;;
61391;SDS011;47261;52.892;5.738;2023-09-12T10:35:00;25.00;;;13.98;;
61391;SDS011;47261;52.892;5.738;2023-09-12T10:37:28;25.77;;;14.63;;
61391;SDS011;47261;52.892;5.738;2023-09-12T10:39:57;29.10;;;14.40;;
61391;SDS011;47261;52.892;5.738;2023-09-12T10:42:25;27.40;;;15.82;;
61391;SDS011;47261;52.892;5.738;2023-09-12T10:44:52;27.42;;;15.70;;
61391;SDS011;47261;52.892;5.738;2023-09-12T10:47:20;26.77;;;14.20;;
61391;SDS011;47261;52.892;5.738;2023-09-12T10:49:46;29.80;;;15.57;;
61391;SDS011;47261;52.892;5.738;2023-09-12T10:52:25;31.57;;;16.97;;
61391;SDS011;47261;52.892;5.738;2023-09-12T10:54:51;26.00;;;16.42;;
61391;SDS011;47261;52.892;5.738;2023-09-12T10:57:17;29.92;;;16.08;;
61391;SDS011;47261;52.892;5.738;2023-09-12T11:02:34;26.30;;;16.40;;
61391;SDS011;47261;52.892;5.738;2023-09-12T11:05:05;29.55;;;16.63;;
61391;SDS011;47261;52.892;5.738;2023-09-12T11:12:45;29.77;;;15.10;;
61391;SDS011;47261;52.892;5.738;2023-09-12T11:15:14;26.27;;;15.18;;
61391;SDS011;47261;52.892;5.738;2023-09-12T11:17:41;24.92;;;15.35;;
61391;SDS011;47261;52.892;5.738;2023-09-12T11:20:07;34.33;;;17.95;;
61391;SDS011;47261;52.892;5.738;2023-09-12T11:22:37;30.83;;;16.73;;
61391;SDS011;47261;52.892;5.738;2023-09-12T11:25:04;27.92;;;17.05;;
61391;SDS011;47261;52.892;5.738;2023-09-12T11:30:25;27.13;;;16.10;;
61391;SDS011;47261;52.892;5.738;2023-09-12T11:32:52;29.70;;;16.30;;
61391;SDS011;47261;52.892;5.738;2023-09-12T11:35:22;39.10;;;18.60;;
61391;SDS011;47261;52.892;5.738;2023-09-12T11:37:50;28.27;;;16.98;;
61391;SDS011;47261;52.892;5.738;2023-09-12T11:40:17;29.20;;;16.50;;
61391;SDS011;47261;52.892;5.738;2023-09-12T11:42:49;31.00;;;16.53;;
61391;SDS011;47261;52.892;5.738;2023-09-12T11:45:17;29.77;;;16.92;;
61391;SDS011;47261;52.892;5.738;2023-09-12T11:47:44;27.65;;;15.82;;
61391;SDS011;47261;52.892;5.738;2023-09-12T11:50:30;25.20;;;14.75;;
61391;SDS011;47261;52.892;5.738;2023-09-12T11:53:05;25.83;;;14.27;;
61391;SDS011;47261;52.892;5.738;2023-09-12T11:55:33;22.90;;;12.93;;
61391;SDS011;47261;52.892;5.738;2023-09-12T11:58:01;24.13;;;14.48;;
61391;SDS011;47261;52.892;5.738;2023-09-12T12:00:28;28.00;;;13.50;;
61391;SDS011;47261;52.892;5.738;2023-09-12T12:02:54;24.48;;;15.20;;
61391;SDS011;47261;52.892;5.738;2023-09-12T12:05:20;23.90;;;12.63;;
61391;SDS011;47261;52.892;5.738;2023-09-12T12:07:47;24.85;;;13.80;;
61391;SDS011;47261;52.892;5.738;2023-09-12T12:10:14;25.02;;;14.50;;
61391;SDS011;47261;52.892;5.738;2023-09-12T12:12:42;26.08;;;14.48;;
61391;SDS011;47261;52.892;5.738;2023-09-12T12:15:10;23.50;;;13.15;;
61391;SDS011;47261;52.892;5.738;2023-09-12T12:17:37;25.60;;;14.70;;
61391;SDS011;47261;52.892;5.738;2023-09-12T12:20:06;25.10;;;15.32;;
61391;SDS011;47261;52.892;5.738;2023-09-12T12:22:35;24.70;;;15.45;;
61391;SDS011;47261;52.892;5.738;2023-09-12T12:25:10;27.95;;;16.05;;
61391;SDS011;47261;52.892;5.738;2023-09-12T12:27:37;26.80;;;14.88;;
61391;SDS011;47261;52.892;5.738;2023-09-12T12:30:07;24.80;;;16.20;;
61391;SDS011;47261;52.892;5.738;2023-09-12T12:32:44;27.08;;;15.48;;
61391;SDS011;47261;52.892;5.738;2023-09-12T12:35:21;28.30;;;15.68;;
61391;SDS011;47261;52.892;5.738;2023-09-12T12:37:48;28.13;;;15.77;;
61391;SDS011;47261;52.892;5.738;2023-09-12T12:40:19;25.38;;;15.82;;
61391;SDS011;47261;52.892;5.738;2023-09-12T12:42:44;28.87;;;17.70;;
61391;SDS011;47261;52.892;5.738;2023-09-12T12:45:14;28.77;;;16.25;;
61391;SDS011;47261;52.892;5.738;2023-09-12T12:47:41;30.90;;;18.48;;
61391;SDS011;47261;52.892;5.738;2023-09-12T12:50:11;30.65;;;17.98;;
61391;SDS011;47261;52.892;5.738;2023-09-12T12:52:38;26.03;;;17.10;;
61391;SDS011;47261;52.892;5.738;2023-09-12T12:55:11;28.63;;;17.48;;
61391;SDS011;47261;52.892;5.738;2023-09-12T12:57:39;29.10;;;18.27;;
61391;SDS011;47261;52.892;5.738;2023-09-12T13:00:09;36.63;;;21.02;;
61391;SDS011;47261;52.892;5.738;2023-09-12T13:02:37;32.80;;;21.67;;
61391;SDS011;47261;52.892;5.738;2023-09-12T13:05:03;35.47;;;22.17;;
61391;SDS011;47261;52.892;5.738;2023-09-12T13:07:33;34.65;;;22.50;;
61391;SDS011;47261;52.892;5.738;2023-09-12T13:10:00;39.97;;;24.10;;
61391;SDS011;47261;52.892;5.738;2023-09-12T13:12:27;38.53;;;23.23;;
61391;SDS011;47261;52.892;5.738;2023-09-12T13:14:53;36.13;;;23.50;;
61391;SDS011;47261;52.892;5.738;2023-09-12T13:17:19;36.10;;;21.97;;
61391;SDS011;47261;52.892;5.738;2023-09-12T13:19:44;34.72;;;20.92;;
61391;SDS011;47261;52.892;5.738;2023-09-12T13:22:10;29.27;;;19.80;;
61391;SDS011;47261;52.892;5.738;2023-09-12T13:24:36;31.77;;;19.85;;
61391;SDS011;47261;52.892;5.738;2023-09-12T13:27:02;31.00;;;18.50;;
61391;SDS011;47261;52.892;5.738;2023-09-12T13:29:27;27.67;;;18.05;;
61391;SDS011;47261;52.892;5.738;2023-09-12T13:31:53;32.67;;;18.90;;
61391;SDS011;47261;52.892;5.738;2023-09-12T13:34:19;29.00;;;16.77;;
61391;SDS011;47261;52.892;5.738;2023-09-12T13:36:44;33.67;;;18.60;;
61391;SDS011;47261;52.892;5.738;2023-09-12T13:39:10;24.88;;;16.83;;
61391;SDS011;47261;52.892;5.738;2023-09-12T13:41:38;26.30;;;17.97;;
61391;SDS011;47261;52.892;5.738;2023-09-12T13:44:05;23.17;;;15.02;;
61391;SDS011;47261;52.892;5.738;2023-09-12T13:46:31;29.42;;;17.50;;
61391;SDS011;47261;52.892;5.738;2023-09-12T13:48:57;28.98;;;17.15;;
61391;SDS011;47261;52.892;5.738;2023-09-12T13:51:26;32.93;;;19.13;;
61391;SDS011;47261;52.892;5.738;2023-09-12T13:53:52;31.30;;;18.23;;
61391;SDS011;47261;52.892;5.738;2023-09-12T13:56:18;32.80;;;18.15;;
61391;SDS011;47261;52.892;5.738;2023-09-12T13:58:43;33.87;;;18.60;;
61391;SDS011;47261;52.892;5.738;2023-09-12T14:01:09;21.00;;;13.15;;
61391;SDS011;47261;52.892;5.738;2023-09-12T14:03:35;16.03;;;9.70;;
61391;SDS011;47261;52.892;5.738;2023-09-12T14:06:01;20.10;;;10.05;;
61391;SDS011;47261;52.892;5.738;2023-09-12T14:08:27;20.87;;;10.00;;
61391;SDS011;47261;52.892;5.738;2023-09-12T14:10:52;24.23;;;12.50;;
61391;SDS011;47261;52.892;5.738;2023-09-12T14:13:18;20.73;;;12.50;;
61391;SDS011;47261;52.892;5.738;2023-09-12T14:15:43;22.57;;;12.93;;
61391;SDS011;47261;52.892;5.738;2023-09-12T14:18:11;16.35;;;8.55;;
61391;SDS011;47261;52.892;5.738;2023-09-12T14:20:37;16.33;;;8.83;;
61391;SDS011;47261;52.892;5.738;2023-09-12T14:23:03;18.02;;;9.98;;
61391;SDS011;47261;52.892;5.738;2023-09-12T14:25:28;16.97;;;9.50;;
61391;SDS011;47261;52.892;5.738;2023-09-12T14:27:54;15.82;;;9.93;;
61391;SDS011;47261;52.892;5.738;2023-09-12T14:30:20;26.67;;;16.33;;
61391;SDS011;47261;52.892;5.738;2023-09-12T14:32:47;32.20;;;19.77;;
61391;SDS011;47261;52.892;5.738;2023-09-12T14:35:13;26.20;;;16.42;;
61391;SDS011;47261;52.892;5.738;2023-09-12T14:37:39;24.17;;;13.70;;